sensor_id;sensor_type;location;lat;lon;timestamp;temperature;humidity
48575;DHT22;34352;51.084;3.712;2022-08-19T00:01:33;19.00;44.20
48575;DHT22;34352;51.084;3.712;2022-08-19T00:04:03;19.00;45.40
48575;DHT22;34352;51.084;3.712;2022-08-19T00:06:30;19.00;45.50
48575;DHT22;34352;51.084;3.712;2022-08-19T00:08:57;18.90;45.40
48575;DHT22;34352;51.084;3.712;2022-08-19T00:11:24;18.90;45.00
48575;DHT22;34352;51.084;3.712;2022-08-19T00:13:50;18.80;45.70
48575;DHT22;34352;51.084;3.712;2022-08-19T00:16:18;18.80;45.80
48575;DHT22;34352;51.084;3.712;2022-08-19T00:18:46;18.70;47.40
48575;DHT22;34352;51.084;3.712;2022-08-19T00:21:14;18.70;48.40
48575;DHT22;34352;51.084;3.712;2022-08-19T00:23:41;18.70;48.00
48575;DHT22;34352;51.084;3.712;2022-08-19T00:26:09;18.70;48.90
48575;DHT22;34352;51.084;3.712;2022-08-19T00:28:35;18.60;49.80
48575;DHT22;34352;51.084;3.712;2022-08-19T00:31:10;18.60;49.70
48575;DHT22;34352;51.084;3.712;2022-08-19T00:33:36;18.60;50.10
48575;DHT22;34352;51.084;3.712;2022-08-19T00:36:07;18.50;50.90
48575;DHT22;34352;51.084;3.712;2022-08-19T00:38:38;18.50;53.00
48575;DHT22;34352;51.084;3.712;2022-08-19T00:41:07;18.50;54.70
48575;DHT22;34352;51.084;3.712;2022-08-19T00:43:33;18.50;53.50
48575;DHT22;34352;51.084;3.712;2022-08-19T00:45:59;18.50;51.40
48575;DHT22;34352;51.084;3.712;2022-08-19T00:48:25;18.50;50.50
48575;DHT22;34352;51.084;3.712;2022-08-19T00:50:52;18.50;50.80
48575;DHT22;34352;51.084;3.712;2022-08-19T00:53:24;18.40;52.70
48575;DHT22;34352;51.084;3.712;2022-08-19T00:55:54;18.50;53.10
48575;DHT22;34352;51.084;3.712;2022-08-19T00:58:27;18.30;55.40
48575;DHT22;34352;51.084;3.712;2022-08-19T01:00:54;18.30;56.00
48575;DHT22;34352;51.084;3.712;2022-08-19T01:03:21;18.30;55.50
48575;DHT22;34352;51.084;3.712;2022-08-19T01:05:49;18.30;57.80
48575;DHT22;34352;51.084;3.712;2022-08-19T01:08:18;18.30;58.70
48575;DHT22;34352;51.084;3.712;2022-08-19T01:10:53;18.30;56.80
48575;DHT22;34352;51.084;3.712;2022-08-19T01:13:22;18.30;56.30
48575;DHT22;34352;51.084;3.712;2022-08-19T01:16:12;18.40;56.10
48575;DHT22;34352;51.084;3.712;2022-08-19T01:18:41;18.40;53.60
48575;DHT22;34352;51.084;3.712;2022-08-19T01:21:32;18.30;54.00
48575;DHT22;34352;51.084;3.712;2022-08-19T01:24:01;18.40;52.20
48575;DHT22;34352;51.084;3.712;2022-08-19T01:26:28;18.30;51.20
48575;DHT22;34352;51.084;3.712;2022-08-19T01:28:57;18.30;51.20
48575;DHT22;34352;51.084;3.712;2022-08-19T01:31:27;18.50;51.70
48575;DHT22;34352;51.084;3.712;2022-08-19T01:33:57;18.60;52.30
48575;DHT22;34352;51.084;3.712;2022-08-19T01:36:31;18.10;54.50
48575;DHT22;34352;51.084;3.712;2022-08-19T01:38:57;18.00;55.90
48575;DHT22;34352;51.084;3.712;2022-08-19T01:41:23;18.00;55.70
48575;DHT22;34352;51.084;3.712;2022-08-19T01:43:50;18.00;56.20
48575;DHT22;34352;51.084;3.712;2022-08-19T01:46:17;18.00;57.00
48575;DHT22;34352;51.084;3.712;2022-08-19T01:48:43;17.90;58.70
48575;DHT22;34352;51.084;3.712;2022-08-19T01:51:11;17.90;58.80
48575;DHT22;34352;51.084;3.712;2022-08-19T01:53:37;17.80;60.10
48575;DHT22;34352;51.084;3.712;2022-08-19T01:56:04;17.90;60.70
48575;DHT22;34352;51.084;3.712;2022-08-19T01:58:38;17.70;61.50
48575;DHT22;34352;51.084;3.712;2022-08-19T02:01:06;17.70;61.40
48575;DHT22;34352;51.084;3.712;2022-08-19T02:03:32;17.70;60.40
48575;DHT22;34352;51.084;3.712;2022-08-19T02:06:01;17.70;60.10
48575;DHT22;34352;51.084;3.712;2022-08-19T02:08:29;17.70;61.60
48575;DHT22;34352;51.084;3.712;2022-08-19T02:10:55;17.60;62.50
48575;DHT22;34352;51.084;3.712;2022-08-19T02:13:23;17.70;62.10
48575;DHT22;34352;51.084;3.712;2022-08-19T02:15:49;17.70;61.50
48575;DHT22;34352;51.084;3.712;2022-08-19T02:18:15;17.70;61.40
48575;DHT22;34352;51.084;3.712;2022-08-19T02:20:41;17.60;63.20
48575;DHT22;34352;51.084;3.712;2022-08-19T02:23:09;17.60;63.50
48575;DHT22;34352;51.084;3.712;2022-08-19T02:25:36;17.60;64.60
48575;DHT22;34352;51.084;3.712;2022-08-19T02:28:04;17.60;63.40
48575;DHT22;34352;51.084;3.712;2022-08-19T02:30:32;17.60;63.90
48575;DHT22;34352;51.084;3.712;2022-08-19T02:32:58;17.60;63.10
48575;DHT22;34352;51.084;3.712;2022-08-19T02:35:25;17.60;62.50
48575;DHT22;34352;51.084;3.712;2022-08-19T02:37:52;17.60;62.70
48575;DHT22;34352;51.084;3.712;2022-08-19T02:40:36;17.50;64.10
48575;DHT22;34352;51.084;3.712;2022-08-19T02:43:03;17.60;65.10
48575;DHT22;34352;51.084;3.712;2022-08-19T02:45:35;17.90;66.20
48575;DHT22;34352;51.084;3.712;2022-08-19T02:48:02;17.40;66.50
48575;DHT22;34352;51.084;3.712;2022-08-19T02:50:28;17.40;67.40
48575;DHT22;34352;51.084;3.712;2022-08-19T02:52:54;17.40;67.60
48575;DHT22;34352;51.084;3.712;2022-08-19T02:55:20;17.40;67.60
48575;DHT22;34352;51.084;3.712;2022-08-19T02:57:47;17.40;68.00
48575;DHT22;34352;51.084;3.712;2022-08-19T03:00:17;17.40;68.50
48575;DHT22;34352;51.084;3.712;2022-08-19T03:02:43;17.40;68.40
48575;DHT22;34352;51.084;3.712;2022-08-19T03:05:10;17.40;68.30
48575;DHT22;34352;51.084;3.712;2022-08-19T03:07:38;17.40;67.90
48575;DHT22;34352;51.084;3.712;2022-08-19T03:10:05;17.50;67.80
48575;DHT22;34352;51.084;3.712;2022-08-19T03:12:36;17.40;68.60
48575;DHT22;34352;51.084;3.712;2022-08-19T03:15:07;17.40;68.40
48575;DHT22;34352;51.084;3.712;2022-08-19T03:17:34;17.40;68.10
48575;DHT22;34352;51.084;3.712;2022-08-19T03:20:01;17.50;68.00
48575;DHT22;34352;51.084;3.712;2022-08-19T03:22:26;17.50;67.70
48575;DHT22;34352;51.084;3.712;2022-08-19T03:24:52;17.50;67.40
48575;DHT22;34352;51.084;3.712;2022-08-19T03:27:19;17.50;67.10
48575;DHT22;34352;51.084;3.712;2022-08-19T03:29:44;17.50;66.50
48575;DHT22;34352;51.084;3.712;2022-08-19T03:32:11;17.50;66.70
48575;DHT22;34352;51.084;3.712;2022-08-19T03:34:38;17.50;66.80
48575;DHT22;34352;51.084;3.712;2022-08-19T03:37:07;17.60;66.20
48575;DHT22;34352;51.084;3.712;2022-08-19T03:39:35;17.50;66.90
48575;DHT22;34352;51.084;3.712;2022-08-19T03:42:02;17.40;67.90
48575;DHT22;34352;51.084;3.712;2022-08-19T03:44:29;17.40;67.90
48575;DHT22;34352;51.084;3.712;2022-08-19T03:46:57;17.50;68.00
48575;DHT22;34352;51.084;3.712;2022-08-19T03:49:26;17.40;67.70
48575;DHT22;34352;51.084;3.712;2022-08-19T03:51:58;17.40;67.90
48575;DHT22;34352;51.084;3.712;2022-08-19T03:54:26;17.40;67.40
48575;DHT22;34352;51.084;3.712;2022-08-19T03:56:54;17.50;66.80
48575;DHT22;34352;51.084;3.712;2022-08-19T03:59:24;17.50;66.30
48575;DHT22;34352;51.084;3.712;2022-08-19T04:01:52;17.40;65.60
48575;DHT22;34352;51.084;3.712;2022-08-19T04:04:19;17.30;66.90
48575;DHT22;34352;51.084;3.712;2022-08-19T04:06:45;17.20;68.80
48575;DHT22;34352;51.084;3.712;2022-08-19T04:09:12;17.20;68.50
48575;DHT22;34352;51.084;3.712;2022-08-19T04:11:41;17.30;68.50
48575;DHT22;34352;51.084;3.712;2022-08-19T04:14:09;17.20;68.70
48575;DHT22;34352;51.084;3.712;2022-08-19T04:16:35;17.20;69.40
48575;DHT22;34352;51.084;3.712;2022-08-19T04:19:04;17.20;69.30
48575;DHT22;34352;51.084;3.712;2022-08-19T04:21:30;17.10;70.20
48575;DHT22;34352;51.084;3.712;2022-08-19T04:23:57;17.10;70.60
48575;DHT22;34352;51.084;3.712;2022-08-19T04:26:27;17.10;70.90
48575;DHT22;34352;51.084;3.712;2022-08-19T04:28:53;17.10;70.80
48575;DHT22;34352;51.084;3.712;2022-08-19T04:31:24;17.10;70.80
48575;DHT22;34352;51.084;3.712;2022-08-19T04:33:53;17.10;71.40
48575;DHT22;34352;51.084;3.712;2022-08-19T04:36:30;17.20;69.60
48575;DHT22;34352;51.084;3.712;2022-08-19T04:39:00;17.20;69.60
48575;DHT22;34352;51.084;3.712;2022-08-19T04:41:26;17.20;69.20
48575;DHT22;34352;51.084;3.712;2022-08-19T04:44:12;17.10;69.70
48575;DHT22;34352;51.084;3.712;2022-08-19T04:46:45;17.10;69.60
48575;DHT22;34352;51.084;3.712;2022-08-19T04:49:13;17.10;70.40
48575;DHT22;34352;51.084;3.712;2022-08-19T04:51:41;17.10;70.80
48575;DHT22;34352;51.084;3.712;2022-08-19T04:54:09;17.10;71.00
48575;DHT22;34352;51.084;3.712;2022-08-19T04:56:35;17.10;71.10
48575;DHT22;34352;51.084;3.712;2022-08-19T04:59:06;17.10;71.70
48575;DHT22;34352;51.084;3.712;2022-08-19T05:01:33;17.10;72.10
48575;DHT22;34352;51.084;3.712;2022-08-19T05:04:04;17.10;72.30
48575;DHT22;34352;51.084;3.712;2022-08-19T05:06:32;17.30;72.40
48575;DHT22;34352;51.084;3.712;2022-08-19T05:09:04;17.20;72.20
48575;DHT22;34352;51.084;3.712;2022-08-19T05:11:34;17.30;72.80
48575;DHT22;34352;51.084;3.712;2022-08-19T05:14:01;17.30;71.40
48575;DHT22;34352;51.084;3.712;2022-08-19T05:16:27;17.40;71.20
48575;DHT22;34352;51.084;3.712;2022-08-19T05:18:53;17.80;71.10
48575;DHT22;34352;51.084;3.712;2022-08-19T05:21:39;17.50;70.70
48575;DHT22;34352;51.084;3.712;2022-08-19T05:24:24;17.70;70.30
48575;DHT22;34352;51.084;3.712;2022-08-19T05:26:52;17.80;70.30
48575;DHT22;34352;51.084;3.712;2022-08-19T05:29:20;17.80;69.50
48575;DHT22;34352;51.084;3.712;2022-08-19T05:31:47;18.00;69.00
48575;DHT22;34352;51.084;3.712;2022-08-19T05:34:15;18.00;68.40
48575;DHT22;34352;51.084;3.712;2022-08-19T05:36:48;18.10;68.80
48575;DHT22;34352;51.084;3.712;2022-08-19T05:39:18;18.20;68.50
48575;DHT22;34352;51.084;3.712;2022-08-19T05:41:49;18.20;67.30
48575;DHT22;34352;51.084;3.712;2022-08-19T05:44:16;18.30;67.60
48575;DHT22;34352;51.084;3.712;2022-08-19T05:46:46;18.30;67.50
48575;DHT22;34352;51.084;3.712;2022-08-19T05:49:13;18.40;66.40
48575;DHT22;34352;51.084;3.712;2022-08-19T05:51:39;18.40;67.00
48575;DHT22;34352;51.084;3.712;2022-08-19T05:54:05;18.50;67.00
48575;DHT22;34352;51.084;3.712;2022-08-19T05:56:33;18.50;67.40
48575;DHT22;34352;51.084;3.712;2022-08-19T05:59:06;18.90;67.50
48575;DHT22;34352;51.084;3.712;2022-08-19T06:01:38;18.80;66.30
48575;DHT22;34352;51.084;3.712;2022-08-19T06:04:07;18.90;66.40
48575;DHT22;34352;51.084;3.712;2022-08-19T06:06:34;19.00;63.60
48575;DHT22;34352;51.084;3.712;2022-08-19T06:09:05;18.90;64.60
48575;DHT22;34352;51.084;3.712;2022-08-19T06:11:35;19.00;65.70
48575;DHT22;34352;51.084;3.712;2022-08-19T06:14:13;19.10;64.10
48575;DHT22;34352;51.084;3.712;2022-08-19T06:16:41;19.10;64.40
48575;DHT22;34352;51.084;3.712;2022-08-19T06:19:10;19.30;64.00
48575;DHT22;34352;51.084;3.712;2022-08-19T06:21:38;19.20;63.80
48575;DHT22;34352;51.084;3.712;2022-08-19T06:24:06;19.20;65.00
48575;DHT22;34352;51.084;3.712;2022-08-19T06:26:34;19.30;65.70
48575;DHT22;34352;51.084;3.712;2022-08-19T06:29:01;19.50;64.20
48575;DHT22;34352;51.084;3.712;2022-08-19T06:31:28;19.60;63.60
48575;DHT22;34352;51.084;3.712;2022-08-19T06:33:54;19.70;62.80
48575;DHT22;34352;51.084;3.712;2022-08-19T06:36:27;20.00;59.60
48575;DHT22;34352;51.084;3.712;2022-08-19T06:38:56;20.30;55.10
48575;DHT22;34352;51.084;3.712;2022-08-19T06:41:25;20.50;52.40
48575;DHT22;34352;51.084;3.712;2022-08-19T06:43:51;21.00;48.80
48575;DHT22;34352;51.084;3.712;2022-08-19T06:46:17;21.30;39.70
48575;DHT22;34352;51.084;3.712;2022-08-19T06:48:45;21.10;36.20
48575;DHT22;34352;51.084;3.712;2022-08-19T06:51:15;21.10;40.10
48575;DHT22;34352;51.084;3.712;2022-08-19T06:53:47;20.90;39.60
48575;DHT22;34352;51.084;3.712;2022-08-19T06:56:17;20.80;43.50
48575;DHT22;34352;51.084;3.712;2022-08-19T06:58:43;20.80;45.90
48575;DHT22;34352;51.084;3.712;2022-08-19T07:01:09;20.70;45.20
48575;DHT22;34352;51.084;3.712;2022-08-19T07:03:37;20.70;47.80
48575;DHT22;34352;51.084;3.712;2022-08-19T07:06:06;20.60;47.60
48575;DHT22;34352;51.084;3.712;2022-08-19T07:08:33;20.60;49.20
48575;DHT22;34352;51.084;3.712;2022-08-19T07:10:59;20.60;49.70
48575;DHT22;34352;51.084;3.712;2022-08-19T07:13:25;20.50;52.30
48575;DHT22;34352;51.084;3.712;2022-08-19T07:15:51;20.60;54.40
48575;DHT22;34352;51.084;3.712;2022-08-19T07:18:20;20.50;54.30
48575;DHT22;34352;51.084;3.712;2022-08-19T07:20:48;20.50;53.60
48575;DHT22;34352;51.084;3.712;2022-08-19T07:23:13;20.50;54.80
48575;DHT22;34352;51.084;3.712;2022-08-19T07:25:39;20.50;52.80
48575;DHT22;34352;51.084;3.712;2022-08-19T07:28:06;20.50;54.60
48575;DHT22;34352;51.084;3.712;2022-08-19T07:30:36;20.40;56.70
48575;DHT22;34352;51.084;3.712;2022-08-19T07:33:02;20.50;58.00
48575;DHT22;34352;51.084;3.712;2022-08-19T07:35:28;20.50;57.90
48575;DHT22;34352;51.084;3.712;2022-08-19T07:37:54;20.50;58.10
48575;DHT22;34352;51.084;3.712;2022-08-19T07:40:21;20.70;55.20
48575;DHT22;34352;51.084;3.712;2022-08-19T07:42:46;20.80;54.20
48575;DHT22;34352;51.084;3.712;2022-08-19T07:45:13;20.90;50.40
48575;DHT22;34352;51.084;3.712;2022-08-19T07:47:40;20.90;49.00
48575;DHT22;34352;51.084;3.712;2022-08-19T07:50:09;20.90;50.10
48575;DHT22;34352;51.084;3.712;2022-08-19T07:52:37;20.80;53.80
48575;DHT22;34352;51.084;3.712;2022-08-19T07:55:10;20.80;53.00
48575;DHT22;34352;51.084;3.712;2022-08-19T07:57:36;20.80;53.80
48575;DHT22;34352;51.084;3.712;2022-08-19T08:00:04;20.80;53.50
48575;DHT22;34352;51.084;3.712;2022-08-19T08:02:30;20.80;54.00
48575;DHT22;34352;51.084;3.712;2022-08-19T08:04:55;20.80;53.90
48575;DHT22;34352;51.084;3.712;2022-08-19T08:07:39;21.00;54.70
48575;DHT22;34352;51.084;3.712;2022-08-19T08:10:23;20.70;56.10
48575;DHT22;34352;51.084;3.712;2022-08-19T08:12:49;20.60;58.70
48575;DHT22;34352;51.084;3.712;2022-08-19T08:15:15;20.70;58.60
48575;DHT22;34352;51.084;3.712;2022-08-19T08:17:42;20.80;58.00
48575;DHT22;34352;51.084;3.712;2022-08-19T08:20:09;20.90;55.90
48575;DHT22;34352;51.084;3.712;2022-08-19T08:22:35;21.00;53.50
48575;DHT22;34352;51.084;3.712;2022-08-19T08:25:22;21.00;53.50
48575;DHT22;34352;51.084;3.712;2022-08-19T08:27:48;21.10;52.50
48575;DHT22;34352;51.084;3.712;2022-08-19T08:30:20;21.10;52.20
48575;DHT22;34352;51.084;3.712;2022-08-19T08:32:47;21.20;51.60
48575;DHT22;34352;51.084;3.712;2022-08-19T08:35:15;21.30;49.50
48575;DHT22;34352;51.084;3.712;2022-08-19T08:37:46;21.30;49.30
48575;DHT22;34352;51.084;3.712;2022-08-19T08:43:07;21.30;47.40
48575;DHT22;34352;51.084;3.712;2022-08-19T08:45:35;21.40;49.30
48575;DHT22;34352;51.084;3.712;2022-08-19T08:48:23;21.50;44.90
48575;DHT22;34352;51.084;3.712;2022-08-19T08:50:51;21.70;43.90
48575;DHT22;34352;51.084;3.712;2022-08-19T08:53:20;21.70;37.50
48575;DHT22;34352;51.084;3.712;2022-08-19T08:55:46;21.60;41.50
48575;DHT22;34352;51.084;3.712;2022-08-19T08:58:45;21.70;40.10
48575;DHT22;34352;51.084;3.712;2022-08-19T09:01:12;21.90;35.20
48575;DHT22;34352;51.084;3.712;2022-08-19T09:03:40;21.90;34.90
48575;DHT22;34352;51.084;3.712;2022-08-19T09:06:12;21.90;34.00
48575;DHT22;34352;51.084;3.712;2022-08-19T09:09:05;21.80;33.70
48575;DHT22;34352;51.084;3.712;2022-08-19T09:17:10;22.10;28.10
48575;DHT22;34352;51.084;3.712;2022-08-19T09:22:14;22.10;26.80
48575;DHT22;34352;51.084;3.712;2022-08-19T09:24:40;22.30;27.80
48575;DHT22;34352;51.084;3.712;2022-08-19T09:27:06;22.70;20.20
48575;DHT22;34352;51.084;3.712;2022-08-19T09:29:31;23.10;12.50
48575;DHT22;34352;51.084;3.712;2022-08-19T09:31:57;23.30;1.00
48575;DHT22;34352;51.084;3.712;2022-08-19T09:34:23;23.60;1.00
48575;DHT22;34352;51.084;3.712;2022-08-19T09:36:49;23.70;1.00
48575;DHT22;34352;51.084;3.712;2022-08-19T09:39:20;23.70;1.00
48575;DHT22;34352;51.084;3.712;2022-08-19T09:41:46;23.70;1.00
48575;DHT22;34352;51.084;3.712;2022-08-19T09:44:11;23.60;1.00
48575;DHT22;34352;51.084;3.712;2022-08-19T09:46:38;23.60;1.00
48575;DHT22;34352;51.084;3.712;2022-08-19T09:49:03;23.80;1.00
48575;DHT22;34352;51.084;3.712;2022-08-19T09:51:31;23.50;1.00
48575;DHT22;34352;51.084;3.712;2022-08-19T09:54:02;23.40;1.00
48575;DHT22;34352;51.084;3.712;2022-08-19T09:56:28;23.50;1.00
48575;DHT22;34352;51.084;3.712;2022-08-19T09:58:57;23.50;1.00
48575;DHT22;34352;51.084;3.712;2022-08-19T10:01:26;23.50;1.00
48575;DHT22;34352;51.084;3.712;2022-08-19T10:03:54;23.50;1.00
48575;DHT22;34352;51.084;3.712;2022-08-19T10:06:22;23.50;1.00
48575;DHT22;34352;51.084;3.712;2022-08-19T10:08:49;23.60;1.00
48575;DHT22;34352;51.084;3.712;2022-08-19T10:11:16;23.60;1.00
48575;DHT22;34352;51.084;3.712;2022-08-19T10:13:43;23.60;1.00
48575;DHT22;34352;51.084;3.712;2022-08-19T10:16:12;23.60;1.00
48575;DHT22;34352;51.084;3.712;2022-08-19T10:18:38;23.50;1.00
48575;DHT22;34352;51.084;3.712;2022-08-19T10:21:15;23.30;1.00
48575;DHT22;34352;51.084;3.712;2022-08-19T10:23:45;23.30;1.00
48575;DHT22;34352;51.084;3.712;2022-08-19T10:26:13;23.40;1.00
48575;DHT22;34352;51.084;3.712;2022-08-19T10:28:39;23.30;1.00
48575;DHT22;34352;51.084;3.712;2022-08-19T10:31:14;23.70;1.00
48575;DHT22;34352;51.084;3.712;2022-08-19T10:33:41;24.50;1.00
48575;DHT22;34352;51.084;3.712;2022-08-19T10:36:12;25.10;1.00
48575;DHT22;34352;51.084;3.712;2022-08-19T10:38:41;25.70;1.00
48575;DHT22;34352;51.084;3.712;2022-08-19T10:41:09;25.70;1.00
48575;DHT22;34352;51.084;3.712;2022-08-19T10:43:35;25.70;1.00
48575;DHT22;34352;51.084;3.712;2022-08-19T10:46:05;25.50;1.00
48575;DHT22;34352;51.084;3.712;2022-08-19T10:48:32;25.30;1.00
48575;DHT22;34352;51.084;3.712;2022-08-19T10:50:58;25.30;1.00
48575;DHT22;34352;51.084;3.712;2022-08-19T10:53:42;25.30;1.00
48575;DHT22;34352;51.084;3.712;2022-08-19T10:56:08;25.20;1.00
48575;DHT22;34352;51.084;3.712;2022-08-19T10:58:52;24.90;1.00
48575;DHT22;34352;51.084;3.712;2022-08-19T11:01:18;24.60;1.00
48575;DHT22;34352;51.084;3.712;2022-08-19T11:03:43;24.30;1.00
48575;DHT22;34352;51.084;3.712;2022-08-19T11:06:11;24.10;1.00
48575;DHT22;34352;51.084;3.712;2022-08-19T11:08:37;23.90;1.00
48575;DHT22;34352;51.084;3.712;2022-08-19T11:11:04;24.00;1.00
48575;DHT22;34352;51.084;3.712;2022-08-19T11:13:35;24.10;1.00
48575;DHT22;34352;51.084;3.712;2022-08-19T11:16:04;24.10;1.00
48575;DHT22;34352;51.084;3.712;2022-08-19T11:18:31;24.20;1.00
48575;DHT22;34352;51.084;3.712;2022-08-19T11:21:09;24.40;1.00
48575;DHT22;34352;51.084;3.712;2022-08-19T11:23:36;24.70;1.00
48575;DHT22;34352;51.084;3.712;2022-08-19T11:26:03;24.90;1.00
48575;DHT22;34352;51.084;3.712;2022-08-19T11:28:29;24.90;1.00
48575;DHT22;34352;51.084;3.712;2022-08-19T11:30:54;24.80;1.00
48575;DHT22;34352;51.084;3.712;2022-08-19T11:33:20;24.70;1.00
48575;DHT22;34352;51.084;3.712;2022-08-19T11:35:46;24.60;1.00
48575;DHT22;34352;51.084;3.712;2022-08-19T11:38:13;24.50;1.00
48575;DHT22;34352;51.084;3.712;2022-08-19T11:40:40;24.60;1.00
48575;DHT22;34352;51.084;3.712;2022-08-19T11:43:08;24.50;1.00
48575;DHT22;34352;51.084;3.712;2022-08-19T11:45:35;24.60;1.00
48575;DHT22;34352;51.084;3.712;2022-08-19T11:48:02;24.70;1.00
48575;DHT22;34352;51.084;3.712;2022-08-19T11:50:28;24.90;1.00
48575;DHT22;34352;51.084;3.712;2022-08-19T11:52:55;24.70;1.00
48575;DHT22;34352;51.084;3.712;2022-08-19T11:55:21;24.70;1.00
48575;DHT22;34352;51.084;3.712;2022-08-19T11:57:47;24.40;1.00
48575;DHT22;34352;51.084;3.712;2022-08-19T12:00:14;24.10;1.00
48575;DHT22;34352;51.084;3.712;2022-08-19T12:02:40;23.90;1.00
48575;DHT22;34352;51.084;3.712;2022-08-19T12:05:06;23.70;1.00
48575;DHT22;34352;51.084;3.712;2022-08-19T12:07:33;23.90;1.00
48575;DHT22;34352;51.084;3.712;2022-08-19T12:10:00;24.30;1.00
48575;DHT22;34352;51.084;3.712;2022-08-19T12:12:26;25.10;1.00
48575;DHT22;34352;51.084;3.712;2022-08-19T12:14:52;25.50;1.00
48575;DHT22;34352;51.084;3.712;2022-08-19T12:17:26;25.70;1.00
48575;DHT22;34352;51.084;3.712;2022-08-19T12:19:53;26.00;1.00
48575;DHT22;34352;51.084;3.712;2022-08-19T12:22:19;26.70;1.00
48575;DHT22;34352;51.084;3.712;2022-08-19T12:24:47;27.50;1.00
48575;DHT22;34352;51.084;3.712;2022-08-19T12:27:15;28.50;1.00
48575;DHT22;34352;51.084;3.712;2022-08-19T12:29:42;28.50;99.90
48575;DHT22;34352;51.084;3.712;2022-08-19T12:32:09;28.60;99.90
48575;DHT22;34352;51.084;3.712;2022-08-19T12:34:35;28.90;1.00
48575;DHT22;34352;51.084;3.712;2022-08-19T12:37:03;29.90;1.00
48575;DHT22;34352;51.084;3.712;2022-08-19T12:39:30;30.20;99.90
48575;DHT22;34352;51.084;3.712;2022-08-19T12:41:58;29.90;99.90
48575;DHT22;34352;51.084;3.712;2022-08-19T12:44:24;29.60;1.00
48575;DHT22;34352;51.084;3.712;2022-08-19T12:46:49;29.20;99.90
48575;DHT22;34352;51.084;3.712;2022-08-19T12:49:15;29.60;1.00
48575;DHT22;34352;51.084;3.712;2022-08-19T12:51:41;29.50;99.90
48575;DHT22;34352;51.084;3.712;2022-08-19T12:54:06;29.00;1.00
48575;DHT22;34352;51.084;3.712;2022-08-19T12:56:32;29.30;1.00
48575;DHT22;34352;51.084;3.712;2022-08-19T12:59:01;29.20;1.00
48575;DHT22;34352;51.084;3.712;2022-08-19T13:01:28;29.30;1.00
48575;DHT22;34352;51.084;3.712;2022-08-19T13:03:58;28.60;99.90
48575;DHT22;34352;51.084;3.712;2022-08-19T13:06:25;28.00;99.90
48575;DHT22;34352;51.084;3.712;2022-08-19T13:08:51;27.90;99.90
48575;DHT22;34352;51.084;3.712;2022-08-19T13:11:19;27.70;99.90
48575;DHT22;34352;51.084;3.712;2022-08-19T13:13:47;27.20;99.90
48575;DHT22;34352;51.084;3.712;2022-08-19T13:16:14;26.40;99.90
48575;DHT22;34352;51.084;3.712;2022-08-19T13:18:42;26.10;99.90
48575;DHT22;34352;51.084;3.712;2022-08-19T13:21:09;25.70;99.90
48575;DHT22;34352;51.084;3.712;2022-08-19T13:23:38;25.50;99.90
48575;DHT22;34352;51.084;3.712;2022-08-19T13:26:06;25.30;1.00
48575;DHT22;34352;51.084;3.712;2022-08-19T13:28:32;24.80;1.00
48575;DHT22;34352;51.084;3.712;2022-08-19T13:31:21;24.10;1.00
48575;DHT22;34352;51.084;3.712;2022-08-19T13:34:06;23.30;5.70
48575;DHT22;34352;51.084;3.712;2022-08-19T13:36:33;22.70;26.30
48575;DHT22;34352;51.084;3.712;2022-08-19T13:38:59;22.40;40.90
48575;DHT22;34352;51.084;3.712;2022-08-19T13:41:25;22.30;47.60
48575;DHT22;34352;51.084;3.712;2022-08-19T13:43:53;22.50;50.30
48575;DHT22;34352;51.084;3.712;2022-08-19T13:46:20;22.80;47.30
48575;DHT22;34352;51.084;3.712;2022-08-19T13:48:47;23.00;36.70
48575;DHT22;34352;51.084;3.712;2022-08-19T13:51:16;23.10;33.30
48575;DHT22;34352;51.084;3.712;2022-08-19T13:53:43;23.20;36.20
48575;DHT22;34352;51.084;3.712;2022-08-19T13:56:13;23.30;41.10
48575;DHT22;34352;51.084;3.712;2022-08-19T13:58:39;23.40;31.90
48575;DHT22;34352;51.084;3.712;2022-08-19T14:01:05;23.70;40.10
48575;DHT22;34352;51.084;3.712;2022-08-19T14:03:32;23.90;29.00
48575;DHT22;34352;51.084;3.712;2022-08-19T14:05:58;24.30;28.70
48575;DHT22;34352;51.084;3.712;2022-08-19T14:08:25;25.00;22.10
48575;DHT22;34352;51.084;3.712;2022-08-19T14:10:50;26.30;1.00
48575;DHT22;34352;51.084;3.712;2022-08-19T14:13:18;27.20;1.00
48575;DHT22;34352;51.084;3.712;2022-08-19T14:15:45;27.50;1.00
48575;DHT22;34352;51.084;3.712;2022-08-19T14:18:11;27.40;1.00
48575;DHT22;34352;51.084;3.712;2022-08-19T14:20:37;27.00;1.00
48575;DHT22;34352;51.084;3.712;2022-08-19T14:23:03;26.70;1.00
48575;DHT22;34352;51.084;3.712;2022-08-19T14:25:30;26.80;1.00
48575;DHT22;34352;51.084;3.712;2022-08-19T14:27:57;26.70;1.00
48575;DHT22;34352;51.084;3.712;2022-08-19T14:30:26;26.20;1.00
48575;DHT22;34352;51.084;3.712;2022-08-19T14:32:53;26.10;1.00
48575;DHT22;34352;51.084;3.712;2022-08-19T14:35:20;26.00;1.00
48575;DHT22;34352;51.084;3.712;2022-08-19T14:37:48;25.90;1.00
48575;DHT22;34352;51.084;3.712;2022-08-19T14:40:16;25.90;1.00
48575;DHT22;34352;51.084;3.712;2022-08-19T14:42:43;26.30;1.00
48575;DHT22;34352;51.084;3.712;2022-08-19T14:45:11;27.00;1.00
48575;DHT22;34352;51.084;3.712;2022-08-19T14:47:37;27.40;1.00
48575;DHT22;34352;51.084;3.712;2022-08-19T14:50:05;27.80;1.00
48575;DHT22;34352;51.084;3.712;2022-08-19T14:52:32;28.10;1.00
48575;DHT22;34352;51.084;3.712;2022-08-19T14:54:57;27.90;99.90
48575;DHT22;34352;51.084;3.712;2022-08-19T14:57:23;27.90;99.90
48575;DHT22;34352;51.084;3.712;2022-08-19T14:59:49;27.70;99.90
48575;DHT22;34352;51.084;3.712;2022-08-19T15:02:15;27.60;99.90
48575;DHT22;34352;51.084;3.712;2022-08-19T15:04:40;27.70;99.90
48575;DHT22;34352;51.084;3.712;2022-08-19T15:07:06;27.60;99.90
48575;DHT22;34352;51.084;3.712;2022-08-19T15:09:33;27.20;99.90
48575;DHT22;34352;51.084;3.712;2022-08-19T15:12:00;26.90;99.90
48575;DHT22;34352;51.084;3.712;2022-08-19T15:14:28;26.50;99.90
48575;DHT22;34352;51.084;3.712;2022-08-19T15:16:59;26.40;1.00
48575;DHT22;34352;51.084;3.712;2022-08-19T15:19:24;26.50;1.00
48575;DHT22;34352;51.084;3.712;2022-08-19T15:21:50;26.70;1.00
48575;DHT22;34352;51.084;3.712;2022-08-19T15:24:16;27.20;1.00
48575;DHT22;34352;51.084;3.712;2022-08-19T15:26:43;27.40;99.90
48575;DHT22;34352;51.084;3.712;2022-08-19T15:29:09;27.40;99.90
48575;DHT22;34352;51.084;3.712;2022-08-19T15:31:35;27.20;99.90
48575;DHT22;34352;51.084;3.712;2022-08-19T15:34:03;27.30;99.90
48575;DHT22;34352;51.084;3.712;2022-08-19T15:36:32;27.40;99.90
48575;DHT22;34352;51.084;3.712;2022-08-19T15:38:57;27.60;99.90
48575;DHT22;34352;51.084;3.712;2022-08-19T15:41:27;27.70;99.90
48575;DHT22;34352;51.084;3.712;2022-08-19T15:43:58;27.80;99.90
48575;DHT22;34352;51.084;3.712;2022-08-19T15:46:26;27.70;99.90
48575;DHT22;34352;51.084;3.712;2022-08-19T15:48:53;27.40;99.90
48575;DHT22;34352;51.084;3.712;2022-08-19T15:51:20;27.20;99.90
48575;DHT22;34352;51.084;3.712;2022-08-19T15:53:46;27.00;99.90